sensor_id;sensor_type;location;lat;lon;timestamp;P1;durP1;ratioP1;P2;durP2;ratioP2
68976;SDS011;56029;52.568;13.588;2022-08-04T00:00:14;8.48;;;4.72;;
68976;SDS011;56029;52.568;13.588;2022-08-04T00:03:01;7.88;;;4.78;;
68976;SDS011;56029;52.568;13.588;2022-08-04T00:10:58;8.07;;;4.80;;
68976;SDS011;56029;52.568;13.588;2022-08-04T00:13:25;6.45;;;4.60;;
68976;SDS011;56029;52.568;13.588;2022-08-04T00:15:56;7.05;;;4.93;;
68976;SDS011;56029;52.568;13.588;2022-08-04T00:18:25;7.70;;;4.70;;
68976;SDS011;56029;52.568;13.588;2022-08-04T00:20:53;6.55;;;4.60;;
68976;SDS011;56029;52.568;13.588;2022-08-04T00:23:23;6.57;;;4.70;;
68976;SDS011;56029;52.568;13.588;2022-08-04T00:25:51;6.93;;;4.97;;
68976;SDS011;56029;52.568;13.588;2022-08-04T00:28:17;6.32;;;4.82;;
68976;SDS011;56029;52.568;13.588;2022-08-04T00:30:44;7.25;;;4.93;;
68976;SDS011;56029;52.568;13.588;2022-08-04T00:33:10;6.80;;;4.63;;
68976;SDS011;56029;52.568;13.588;2022-08-04T00:35:36;7.65;;;4.65;;
68976;SDS011;56029;52.568;13.588;2022-08-04T00:38:04;7.00;;;5.00;;
68976;SDS011;56029;52.568;13.588;2022-08-04T00:40:35;6.93;;;4.83;;
68976;SDS011;56029;52.568;13.588;2022-08-04T00:43:32;8.02;;;4.88;;
68976;SDS011;56029;52.568;13.588;2022-08-04T00:46:17;7.50;;;4.50;;
68976;SDS011;56029;52.568;13.588;2022-08-04T00:49:09;6.13;;;4.50;;
68976;SDS011;56029;52.568;13.588;2022-08-04T01:01:05;7.10;;;4.80;;
68976;SDS011;56029;52.568;13.588;2022-08-04T01:03:36;7.93;;;4.95;;
68976;SDS011;56029;52.568;13.588;2022-08-04T01:06:29;8.13;;;5.00;;
68976;SDS011;56029;52.568;13.588;2022-08-04T01:14:11;7.95;;;5.10;;
68976;SDS011;56029;52.568;13.588;2022-08-04T01:17:32;7.20;;;4.72;;
68976;SDS011;56029;52.568;13.588;2022-08-04T01:20:08;6.87;;;5.00;;
68976;SDS011;56029;52.568;13.588;2022-08-04T01:28:14;7.22;;;5.03;;
68976;SDS011;56029;52.568;13.588;2022-08-04T01:34:18;8.10;;;5.37;;
68976;SDS011;56029;52.568;13.588;2022-08-04T01:36:46;8.27;;;5.00;;
68976;SDS011;56029;52.568;13.588;2022-08-04T01:39:22;7.30;;;4.63;;
68976;SDS011;56029;52.568;13.588;2022-08-04T01:42:06;8.30;;;4.95;;
68976;SDS011;56029;52.568;13.588;2022-08-04T01:44:32;7.63;;;4.97;;
68976;SDS011;56029;52.568;13.588;2022-08-04T01:47:00;7.07;;;4.70;;
68976;SDS011;56029;52.568;13.588;2022-08-04T01:49:29;7.00;;;5.00;;
68976;SDS011;56029;52.568;13.588;2022-08-04T01:51:57;7.65;;;5.00;;
68976;SDS011;56029;52.568;13.588;2022-08-04T01:54:23;7.53;;;5.20;;
68976;SDS011;56029;52.568;13.588;2022-08-04T01:56:50;8.25;;;5.30;;
68976;SDS011;56029;52.568;13.588;2022-08-04T01:59:18;7.63;;;5.23;;
68976;SDS011;56029;52.568;13.588;2022-08-04T02:01:45;7.43;;;5.20;;
68976;SDS011;56029;52.568;13.588;2022-08-04T02:04:14;7.22;;;5.30;;
68976;SDS011;56029;52.568;13.588;2022-08-04T02:07:02;6.90;;;5.13;;
68976;SDS011;56029;52.568;13.588;2022-08-04T02:12:29;7.07;;;5.27;;
68976;SDS011;56029;52.568;13.588;2022-08-04T02:15:17;9.52;;;5.57;;
68976;SDS011;56029;52.568;13.588;2022-08-04T02:18:03;8.05;;;5.35;;
68976;SDS011;56029;52.568;13.588;2022-08-04T02:20:32;7.63;;;5.03;;
68976;SDS011;56029;52.568;13.588;2022-08-04T02:25:28;7.40;;;5.70;;
68976;SDS011;56029;52.568;13.588;2022-08-04T02:28:08;7.25;;;5.50;;
68976;SDS011;56029;52.568;13.588;2022-08-04T02:30:49;7.43;;;5.20;;
68976;SDS011;56029;52.568;13.588;2022-08-04T02:33:35;7.68;;;5.15;;
68976;SDS011;56029;52.568;13.588;2022-08-04T02:36:03;8.57;;;5.40;;
68976;SDS011;56029;52.568;13.588;2022-08-04T02:39:12;7.47;;;5.70;;
68976;SDS011;56029;52.568;13.588;2022-08-04T02:41:26;8.18;;;5.55;;
68976;SDS011;56029;52.568;13.588;2022-08-04T02:43:58;9.50;;;5.38;;
68976;SDS011;56029;52.568;13.588;2022-08-04T02:46:26;7.82;;;5.22;;
68976;SDS011;56029;52.568;13.588;2022-08-04T02:48:52;7.47;;;5.20;;
68976;SDS011;56029;52.568;13.588;2022-08-04T02:51:23;6.17;;;4.93;;
68976;SDS011;56029;52.568;13.588;2022-08-04T02:53:53;8.50;;;5.32;;
68976;SDS011;56029;52.568;13.588;2022-08-04T02:56:21;7.70;;;5.38;;
68976;SDS011;56029;52.568;13.588;2022-08-04T02:58:48;8.40;;;5.63;;
68976;SDS011;56029;52.568;13.588;2022-08-04T03:01:17;8.00;;;5.72;;
68976;SDS011;56029;52.568;13.588;2022-08-04T03:06:27;8.48;;;5.65;;
68976;SDS011;56029;52.568;13.588;2022-08-04T03:14:50;8.10;;;6.00;;
68976;SDS011;56029;52.568;13.588;2022-08-04T03:17:37;7.80;;;6.00;;
68976;SDS011;56029;52.568;13.588;2022-08-04T03:22:58;8.70;;;6.18;;
68976;SDS011;56029;52.568;13.588;2022-08-04T03:25:59;10.83;;;6.20;;
68976;SDS011;56029;52.568;13.588;2022-08-04T03:28:45;8.20;;;5.88;;
68976;SDS011;56029;52.568;13.588;2022-08-04T03:34:36;8.57;;;5.88;;
68976;SDS011;56029;52.568;13.588;2022-08-04T03:43:00;7.55;;;5.95;;
68976;SDS011;56029;52.568;13.588;2022-08-04T03:45:42;8.05;;;5.72;;
68976;SDS011;56029;52.568;13.588;2022-08-04T03:57:29;8.43;;;6.00;;
68976;SDS011;56029;52.568;13.588;2022-08-04T04:00:13;8.90;;;6.00;;
68976;SDS011;56029;52.568;13.588;2022-08-04T04:08:44;8.70;;;6.00;;
68976;SDS011;56029;52.568;13.588;2022-08-04T04:11:28;9.43;;;5.47;;
68976;SDS011;56029;52.568;13.588;2022-08-04T04:17:48;9.43;;;6.40;;
68976;SDS011;56029;52.568;13.588;2022-08-04T04:23:09;9.93;;;6.43;;
68976;SDS011;56029;52.568;13.588;2022-08-04T04:31:11;10.40;;;6.87;;
68976;SDS011;56029;52.568;13.588;2022-08-04T04:39:06;11.73;;;7.73;;
68976;SDS011;56029;52.568;13.588;2022-08-04T04:41:46;11.05;;;8.10;;
68976;SDS011;56029;52.568;13.588;2022-08-04T04:53:10;9.60;;;7.67;;
68976;SDS011;56029;52.568;13.588;2022-08-04T04:55:44;11.45;;;8.23;;
68976;SDS011;56029;52.568;13.588;2022-08-04T04:58:15;10.75;;;7.63;;
68976;SDS011;56029;52.568;13.588;2022-08-04T05:08:50;10.95;;;8.50;;
68976;SDS011;56029;52.568;13.588;2022-08-04T05:11:37;11.90;;;8.80;;
68976;SDS011;56029;52.568;13.588;2022-08-04T05:14:50;11.32;;;9.13;;
68976;SDS011;56029;52.568;13.588;2022-08-04T05:17:23;10.80;;;9.57;;
68976;SDS011;56029;52.568;13.588;2022-08-04T05:19:58;11.73;;;9.60;;
68976;SDS011;56029;52.568;13.588;2022-08-04T05:28:11;12.23;;;10.23;;
68976;SDS011;56029;52.568;13.588;2022-08-04T05:30:40;12.73;;;9.70;;
68976;SDS011;56029;52.568;13.588;2022-08-04T05:33:14;11.63;;;9.83;;
68976;SDS011;56029;52.568;13.588;2022-08-04T05:35:44;14.63;;;10.35;;
68976;SDS011;56029;52.568;13.588;2022-08-04T05:38:14;13.27;;;10.68;;
68976;SDS011;56029;52.568;13.588;2022-08-04T05:40:43;14.70;;;10.48;;
68976;SDS011;56029;52.568;13.588;2022-08-04T05:43:10;12.05;;;10.38;;
68976;SDS011;56029;52.568;13.588;2022-08-04T05:45:37;11.30;;;10.10;;
68976;SDS011;56029;52.568;13.588;2022-08-04T05:48:05;11.77;;;10.57;;
68976;SDS011;56029;52.568;13.588;2022-08-04T05:50:32;12.60;;;10.50;;
68976;SDS011;56029;52.568;13.588;2022-08-04T05:52:58;15.60;;;10.63;;
68976;SDS011;56029;52.568;13.588;2022-08-04T05:55:25;12.30;;;10.50;;
68976;SDS011;56029;52.568;13.588;2022-08-04T05:57:51;12.23;;;9.95;;
68976;SDS011;56029;52.568;13.588;2022-08-04T06:00:18;11.60;;;9.88;;
68976;SDS011;56029;52.568;13.588;2022-08-04T06:02:45;11.95;;;10.40;;
68976;SDS011;56029;52.568;13.588;2022-08-04T06:05:12;11.10;;;9.87;;
68976;SDS011;56029;52.568;13.588;2022-08-04T06:07:40;12.07;;;10.23;;
68976;SDS011;56029;52.568;13.588;2022-08-04T06:10:06;13.38;;;10.05;;
68976;SDS011;56029;52.568;13.588;2022-08-04T06:12:36;11.68;;;9.77;;
68976;SDS011;56029;52.568;13.588;2022-08-04T06:15:06;11.95;;;9.90;;
68976;SDS011;56029;52.568;13.588;2022-08-04T06:17:38;13.53;;;9.07;;
68976;SDS011;56029;52.568;13.588;2022-08-04T06:20:06;14.88;;;9.90;;
68976;SDS011;56029;52.568;13.588;2022-08-04T06:22:34;13.48;;;9.93;;
68976;SDS011;56029;52.568;13.588;2022-08-04T06:25:05;14.07;;;10.00;;
68976;SDS011;56029;52.568;13.588;2022-08-04T06:27:33;12.95;;;10.27;;
68976;SDS011;56029;52.568;13.588;2022-08-04T06:29:59;13.83;;;9.93;;
68976;SDS011;56029;52.568;13.588;2022-08-04T06:32:27;11.75;;;9.80;;
68976;SDS011;56029;52.568;13.588;2022-08-04T06:35:02;14.05;;;9.90;;
68976;SDS011;56029;52.568;13.588;2022-08-04T06:37:29;14.32;;;9.98;;
68976;SDS011;56029;52.568;13.588;2022-08-04T06:39:55;12.82;;;9.35;;
68976;SDS011;56029;52.568;13.588;2022-08-04T06:42:23;15.20;;;9.40;;
68976;SDS011;56029;52.568;13.588;2022-08-04T06:44:51;14.77;;;9.95;;
68976;SDS011;56029;52.568;13.588;2022-08-04T06:47:20;14.02;;;9.30;;
68976;SDS011;56029;52.568;13.588;2022-08-04T06:49:48;15.25;;;9.45;;
68976;SDS011;56029;52.568;13.588;2022-08-04T06:52:15;16.92;;;10.20;;
68976;SDS011;56029;52.568;13.588;2022-08-04T06:54:45;15.60;;;10.00;;
68976;SDS011;56029;52.568;13.588;2022-08-04T06:57:12;14.70;;;9.48;;
68976;SDS011;56029;52.568;13.588;2022-08-04T06:59:42;12.65;;;9.15;;
68976;SDS011;56029;52.568;13.588;2022-08-04T07:02:13;12.55;;;9.40;;
68976;SDS011;56029;52.568;13.588;2022-08-04T07:04:42;13.13;;;9.30;;
68976;SDS011;56029;52.568;13.588;2022-08-04T07:07:09;13.43;;;9.37;;
68976;SDS011;56029;52.568;13.588;2022-08-04T07:09:35;12.35;;;9.05;;
68976;SDS011;56029;52.568;13.588;2022-08-04T07:12:01;11.45;;;8.50;;
68976;SDS011;56029;52.568;13.588;2022-08-04T07:14:27;12.35;;;8.82;;
68976;SDS011;56029;52.568;13.588;2022-08-04T07:16:55;11.90;;;8.87;;
68976;SDS011;56029;52.568;13.588;2022-08-04T07:19:23;11.98;;;9.20;;
68976;SDS011;56029;52.568;13.588;2022-08-04T07:21:49;11.88;;;9.27;;
68976;SDS011;56029;52.568;13.588;2022-08-04T07:24:14;15.33;;;9.77;;
68976;SDS011;56029;52.568;13.588;2022-08-04T07:26:40;12.02;;;8.70;;
68976;SDS011;56029;52.568;13.588;2022-08-04T07:29:06;13.27;;;9.40;;
68976;SDS011;56029;52.568;13.588;2022-08-04T07:31:31;11.90;;;8.48;;
68976;SDS011;56029;52.568;13.588;2022-08-04T07:33:58;11.53;;;8.90;;
68976;SDS011;56029;52.568;13.588;2022-08-04T07:36:26;10.85;;;8.43;;
68976;SDS011;56029;52.568;13.588;2022-08-04T07:38:52;12.95;;;9.07;;
68976;SDS011;56029;52.568;13.588;2022-08-04T07:41:22;9.60;;;8.30;;
68976;SDS011;56029;52.568;13.588;2022-08-04T07:43:48;11.37;;;7.80;;
68976;SDS011;56029;52.568;13.588;2022-08-04T07:46:15;10.85;;;7.78;;
68976;SDS011;56029;52.568;13.588;2022-08-04T07:48:40;9.85;;;7.50;;
68976;SDS011;56029;52.568;13.588;2022-08-04T07:51:06;11.17;;;7.80;;
68976;SDS011;56029;52.568;13.588;2022-08-04T07:53:32;9.63;;;7.75;;
68976;SDS011;56029;52.568;13.588;2022-08-04T07:55:59;8.65;;;7.72;;
68976;SDS011;56029;52.568;13.588;2022-08-04T07:58:25;9.45;;;7.57;;
68976;SDS011;56029;52.568;13.588;2022-08-04T08:00:52;10.60;;;7.60;;
68976;SDS011;56029;52.568;13.588;2022-08-04T08:03:19;9.30;;;7.63;;
68976;SDS011;56029;52.568;13.588;2022-08-04T08:05:45;9.38;;;7.85;;
68976;SDS011;56029;52.568;13.588;2022-08-04T08:08:10;10.63;;;7.50;;
68976;SDS011;56029;52.568;13.588;2022-08-04T08:10:36;10.40;;;6.80;;
68976;SDS011;56029;52.568;13.588;2022-08-04T08:13:02;9.23;;;6.80;;
68976;SDS011;56029;52.568;13.588;2022-08-04T08:15:28;9.23;;;6.43;;
68976;SDS011;56029;52.568;13.588;2022-08-04T08:17:55;10.57;;;6.50;;
68976;SDS011;56029;52.568;13.588;2022-08-04T08:20:21;9.10;;;6.55;;
68976;SDS011;56029;52.568;13.588;2022-08-04T08:22:46;9.17;;;6.90;;
68976;SDS011;56029;52.568;13.588;2022-08-04T08:25:12;9.55;;;6.45;;
68976;SDS011;56029;52.568;13.588;2022-08-04T08:27:38;9.13;;;6.40;;
68976;SDS011;56029;52.568;13.588;2022-08-04T08:30:04;8.50;;;6.70;;
68976;SDS011;56029;52.568;13.588;2022-08-04T08:32:30;8.40;;;6.50;;
68976;SDS011;56029;52.568;13.588;2022-08-04T08:34:56;7.50;;;6.18;;
68976;SDS011;56029;52.568;13.588;2022-08-04T08:37:25;9.43;;;6.43;;
68976;SDS011;56029;52.568;13.588;2022-08-04T08:45:57;9.38;;;7.10;;
68976;SDS011;56029;52.568;13.588;2022-08-04T08:57:01;8.68;;;6.40;;
68976;SDS011;56029;52.568;13.588;2022-08-04T08:59:47;8.23;;;6.07;;
68976;SDS011;56029;52.568;13.588;2022-08-04T09:11:14;7.97;;;5.68;;
68976;SDS011;56029;52.568;13.588;2022-08-04T09:13:51;8.57;;;5.80;;
68976;SDS011;56029;52.568;13.588;2022-08-04T09:16:30;8.75;;;5.80;;
68976;SDS011;56029;52.568;13.588;2022-08-04T09:19:05;7.40;;;5.90;;
68976;SDS011;56029;52.568;13.588;2022-08-04T09:21:57;6.77;;;5.50;;
68976;SDS011;56029;52.568;13.588;2022-08-04T09:24:47;7.65;;;5.55;;
68976;SDS011;56029;52.568;13.588;2022-08-04T09:27:18;6.65;;;5.60;;
68976;SDS011;56029;52.568;13.588;2022-08-04T09:30:00;7.30;;;5.60;;
68976;SDS011;56029;52.568;13.588;2022-08-04T09:32:33;6.47;;;5.18;;
68976;SDS011;56029;52.568;13.588;2022-08-04T09:46:36;6.38;;;5.28;;
68976;SDS011;56029;52.568;13.588;2022-08-04T09:49:26;8.73;;;5.43;;
68976;SDS011;56029;52.568;13.588;2022-08-04T09:52:00;6.30;;;5.00;;
68976;SDS011;56029;52.568;13.588;2022-08-04T10:00:08;7.18;;;5.03;;
68976;SDS011;56029;52.568;13.588;2022-08-04T10:03:11;4.90;;;4.23;;
68976;SDS011;56029;52.568;13.588;2022-08-04T10:05:41;6.22;;;4.70;;
68976;SDS011;56029;52.568;13.588;2022-08-04T10:11:27;6.05;;;4.57;;
68976;SDS011;56029;52.568;13.588;2022-08-04T10:14:09;6.40;;;5.00;;
68976;SDS011;56029;52.568;13.588;2022-08-04T10:17:02;8.33;;;5.03;;
68976;SDS011;56029;52.568;13.588;2022-08-04T10:19:39;5.80;;;4.68;;
68976;SDS011;56029;52.568;13.588;2022-08-04T10:30:02;8.73;;;4.87;;
68976;SDS011;56029;52.568;13.588;2022-08-04T10:35:28;5.85;;;4.57;;
68976;SDS011;56029;52.568;13.588;2022-08-04T10:46:15;5.78;;;4.55;;
68976;SDS011;56029;52.568;13.588;2022-08-04T10:48:53;6.93;;;4.50;;
68976;SDS011;56029;52.568;13.588;2022-08-04T10:51:46;5.18;;;4.30;;
68976;SDS011;56029;52.568;13.588;2022-08-04T10:54:18;5.28;;;4.30;;
68976;SDS011;56029;52.568;13.588;2022-08-04T10:56:53;6.07;;;4.50;;
68976;SDS011;56029;52.568;13.588;2022-08-04T10:59:37;6.90;;;4.85;;
68976;SDS011;56029;52.568;13.588;2022-08-04T11:04:58;6.20;;;4.43;;
68976;SDS011;56029;52.568;13.588;2022-08-04T11:07:31;4.75;;;3.80;;
68976;SDS011;56029;52.568;13.588;2022-08-04T11:09:59;5.00;;;3.93;;
68976;SDS011;56029;52.568;13.588;2022-08-04T11:12:27;5.47;;;3.90;;
68976;SDS011;56029;52.568;13.588;2022-08-04T11:17:35;5.18;;;4.10;;
68976;SDS011;56029;52.568;13.588;2022-08-04T11:22:38;5.23;;;4.27;;
68976;SDS011;56029;52.568;13.588;2022-08-04T11:25:12;5.47;;;4.53;;
68976;SDS011;56029;52.568;13.588;2022-08-04T11:30:29;4.38;;;3.97;;
68976;SDS011;56029;52.568;13.588;2022-08-04T11:33:04;5.65;;;4.20;;
68976;SDS011;56029;52.568;13.588;2022-08-04T11:35:41;5.60;;;4.10;;
68976;SDS011;56029;52.568;13.588;2022-08-04T11:41:06;5.28;;;4.00;;
68976;SDS011;56029;52.568;13.588;2022-08-04T11:46:17;7.70;;;4.50;;
68976;SDS011;56029;52.568;13.588;2022-08-04T11:49:15;6.00;;;4.17;;
68976;SDS011;56029;52.568;13.588;2022-08-04T11:51:59;6.25;;;4.32;;
68976;SDS011;56029;52.568;13.588;2022-08-04T11:54:26;5.25;;;4.10;;
68976;SDS011;56029;52.568;13.588;2022-08-04T11:56:52;4.88;;;4.07;;
68976;SDS011;56029;52.568;13.588;2022-08-04T11:59:20;5.32;;;4.00;;
68976;SDS011;56029;52.568;13.588;2022-08-04T12:02:01;5.60;;;4.00;;
68976;SDS011;56029;52.568;13.588;2022-08-04T12:04:57;4.97;;;4.00;;
68976;SDS011;56029;52.568;13.588;2022-08-04T12:13:30;6.55;;;4.07;;
68976;SDS011;56029;52.568;13.588;2022-08-04T12:22:02;6.18;;;4.28;;
68976;SDS011;56029;52.568;13.588;2022-08-04T12:24:13;5.40;;;4.13;;
68976;SDS011;56029;52.568;13.588;2022-08-04T12:26:42;7.38;;;4.30;;
68976;SDS011;56029;52.568;13.588;2022-08-04T12:29:13;4.40;;;3.80;;
68976;SDS011;56029;52.568;13.588;2022-08-04T12:31:47;5.45;;;4.18;;
68976;SDS011;56029;52.568;13.588;2022-08-04T12:34:30;5.03;;;4.07;;
68976;SDS011;56029;52.568;13.588;2022-08-04T12:37:02;7.13;;;4.57;;
68976;SDS011;56029;52.568;13.588;2022-08-04T12:39:31;5.05;;;4.07;;
68976;SDS011;56029;52.568;13.588;2022-08-04T12:42:10;5.57;;;4.37;;
68976;SDS011;56029;52.568;13.588;2022-08-04T12:44:42;7.68;;;4.20;;
68976;SDS011;56029;52.568;13.588;2022-08-04T12:47:12;6.38;;;4.13;;
68976;SDS011;56029;52.568;13.588;2022-08-04T12:49:40;7.13;;;4.00;;
68976;SDS011;56029;52.568;13.588;2022-08-04T12:52:08;4.85;;;3.90;;
68976;SDS011;56029;52.568;13.588;2022-08-04T12:54:36;5.47;;;4.17;;
68976;SDS011;56029;52.568;13.588;2022-08-04T12:57:03;6.05;;;4.30;;
68976;SDS011;56029;52.568;13.588;2022-08-04T12:59:43;6.03;;;4.68;;
68976;SDS011;56029;52.568;13.588;2022-08-04T13:02:12;6.85;;;4.40;;
68976;SDS011;56029;52.568;13.588;2022-08-04T13:04:41;6.35;;;4.57;;
68976;SDS011;56029;52.568;13.588;2022-08-04T13:07:12;4.53;;;4.07;;
68976;SDS011;56029;52.568;13.588;2022-08-04T13:09:43;7.57;;;4.20;;
68976;SDS011;56029;52.568;13.588;2022-08-04T13:14:52;5.85;;;4.40;;
68976;SDS011;56029;52.568;13.588;2022-08-04T13:17:24;5.65;;;4.20;;
68976;SDS011;56029;52.568;13.588;2022-08-04T13:19:49;6.83;;;4.10;;
68976;SDS011;56029;52.568;13.588;2022-08-04T13:22:26;5.47;;;4.07;;
68976;SDS011;56029;52.568;13.588;2022-08-04T13:24:54;4.70;;;4.20;;
68976;SDS011;56029;52.568;13.588;2022-08-04T13:27:23;6.43;;;4.60;;
68976;SDS011;56029;52.568;13.588;2022-08-04T13:29:50;4.93;;;4.07;;
68976;SDS011;56029;52.568;13.588;2022-08-04T13:32:20;5.68;;;4.35;;
68976;SDS011;56029;52.568;13.588;2022-08-04T13:34:50;5.32;;;4.00;;
68976;SDS011;56029;52.568;13.588;2022-08-04T13:37:20;6.95;;;4.28;;
68976;SDS011;56029;52.568;13.588;2022-08-04T13:39:50;4.90;;;3.80;;
68976;SDS011;56029;52.568;13.588;2022-08-04T13:42:16;5.75;;;4.10;;
68976;SDS011;56029;52.568;13.588;2022-08-04T13:44:46;5.28;;;3.88;;
68976;SDS011;56029;52.568;13.588;2022-08-04T13:47:21;4.85;;;4.07;;
68976;SDS011;56029;52.568;13.588;2022-08-04T13:50:13;6.00;;;4.30;;
68976;SDS011;56029;52.568;13.588;2022-08-04T13:52:41;6.73;;;4.27;;
68976;SDS011;56029;52.568;13.588;2022-08-04T13:55:21;5.57;;;3.97;;
68976;SDS011;56029;52.568;13.588;2022-08-04T13:58:42;5.65;;;3.95;;
68976;SDS011;56029;52.568;13.588;2022-08-04T14:00:51;5.22;;;3.80;;
68976;SDS011;56029;52.568;13.588;2022-08-04T14:03:30;8.15;;;3.90;;
68976;SDS011;56029;52.568;13.588;2022-08-04T14:06:11;5.57;;;3.80;;
68976;SDS011;56029;52.568;13.588;2022-08-04T14:08:45;5.00;;;3.72;;
68976;SDS011;56029;52.568;13.588;2022-08-04T14:11:13;4.93;;;3.75;;
68976;SDS011;56029;52.568;13.588;2022-08-04T14:13:41;6.60;;;3.70;;
68976;SDS011;56029;52.568;13.588;2022-08-04T14:16:17;5.80;;;3.70;;
68976;SDS011;56029;52.568;13.588;2022-08-04T14:18:44;5.45;;;3.55;;
68976;SDS011;56029;52.568;13.588;2022-08-04T14:21:11;5.55;;;3.70;;
68976;SDS011;56029;52.568;13.588;2022-08-04T14:23:43;5.07;;;3.40;;
68976;SDS011;56029;52.568;13.588;2022-08-04T14:26:16;4.95;;;3.65;;
68976;SDS011;56029;52.568;13.588;2022-08-04T14:28:42;5.13;;;3.43;;
68976;SDS011;56029;52.568;13.588;2022-08-04T14:31:11;5.18;;;3.55;;
68976;SDS011;56029;52.568;13.588;2022-08-04T14:33:42;4.37;;;3.17;;
68976;SDS011;56029;52.568;13.588;2022-08-04T14:36:10;4.78;;;3.28;;
68976;SDS011;56029;52.568;13.588;2022-08-04T14:38:40;4.28;;;3.30;;
68976;SDS011;56029;52.568;13.588;2022-08-04T14:41:21;5.72;;;3.28;;
68976;SDS011;56029;52.568;13.588;2022-08-04T14:43:55;4.45;;;3.17;;
68976;SDS011;56029;52.568;13.588;2022-08-04T14:46:25;3.73;;;3.27;;
68976;SDS011;56029;52.568;13.588;2022-08-04T14:48:58;3.55;;;3.20;;
68976;SDS011;56029;52.568;13.588;2022-08-04T14:51:37;4.63;;;3.20;;
68976;SDS011;56029;52.568;13.588;2022-08-04T14:54:05;4.78;;;3.10;;
68976;SDS011;56029;52.568;13.588;2022-08-04T14:56:31;4.50;;;2.83;;
68976;SDS011;56029;52.568;13.588;2022-08-04T14:58:58;3.23;;;2.67;;
68976;SDS011;56029;52.568;13.588;2022-08-04T15:01:42;3.65;;;3.10;;
68976;SDS011;56029;52.568;13.588;2022-08-04T15:04:09;4.75;;;2.95;;
68976;SDS011;56029;52.568;13.588;2022-08-04T15:06:35;4.80;;;2.92;;
68976;SDS011;56029;52.568;13.588;2022-08-04T15:09:05;4.30;;;3.03;;
68976;SDS011;56029;52.568;13.588;2022-08-04T15:11:33;3.47;;;2.80;;
68976;SDS011;56029;52.568;13.588;2022-08-04T15:13:59;5.05;;;2.80;;
68976;SDS011;56029;52.568;13.588;2022-08-04T15:16:26;3.38;;;2.80;;
68976;SDS011;56029;52.568;13.588;2022-08-04T15:18:54;4.47;;;2.50;;
68976;SDS011;56029;52.568;13.588;2022-08-04T15:21:20;3.92;;;2.60;;
68976;SDS011;56029;52.568;13.588;2022-08-04T15:23:47;4.57;;;2.80;;
68976;SDS011;56029;52.568;13.588;2022-08-04T15:26:15;3.65;;;2.70;;
68976;SDS011;56029;52.568;13.588;2022-08-04T15:28:49;3.55;;;2.67;;
68976;SDS011;56029;52.568;13.588;2022-08-04T15:31:17;4.10;;;2.90;;
68976;SDS011;56029;52.568;13.588;2022-08-04T15:33:45;5.30;;;3.30;;
68976;SDS011;56029;52.568;13.588;2022-08-04T15:36:14;5.63;;;3.22;;
68976;SDS011;56029;52.568;13.588;2022-08-04T15:38:49;7.43;;;4.75;;
68976;SDS011;56029;52.568;13.588;2022-08-04T15:41:52;6.38;;;3.17;;
68976;SDS011;56029;52.568;13.588;2022-08-04T15:49:17;4.07;;;2.80;;
68976;SDS011;56029;52.568;13.588;2022-08-04T15:51:57;4.28;;;2.78;;
68976;SDS011;56029;52.568;13.588;2022-08-04T15:54:27;5.35;;;2.90;;
68976;SDS011;56029;52.568;13.588;2022-08-04T15:56:53;3.92;;;3.53;;
68976;SDS011;56029;52.568;13.588;2022-08-04T16:05:27;3.85;;;3.20;;
68976;SDS011;56029;52.568;13.588;2022-08-04T16:10:44;3.23;;;2.93;;
68976;SDS011;56029;52.568;13.588;2022-08-04T16:13:15;3.28;;;2.78;;
68976;SDS011;56029;52.568;13.588;2022-08-04T16:15:48;3.30;;;2.90;;
68976;SDS011;56029;52.568;13.588;2022-08-04T16:20:53;4.72;;;2.97;;
68976;SDS011;56029;52.568;13.588;2022-08-04T16:29:02;4.18;;;3.10;;
68976;SDS011;56029;52.568;13.588;2022-08-04T16:31:28;5.85;;;3.22;;
68976;SDS011;56029;52.568;13.588;2022-08-04T16:33:57;3.95;;;3.20;;
68976;SDS011;56029;52.568;13.588;2022-08-04T16:39:23;4.13;;;2.90;;
68976;SDS011;56029;52.568;13.588;2022-08-04T16:41:49;7.10;;;6.40;;
68976;SDS011;56029;52.568;13.588;2022-08-04T16:47:01;7.10;;;3.78;;
68976;SDS011;56029;52.568;13.588;2022-08-04T16:49:28;18.20;;;15.43;;
68976;SDS011;56029;52.568;13.588;2022-08-04T16:52:05;6.87;;;5.20;;
68976;SDS011;56029;52.568;13.588;2022-08-04T16:54:33;5.30;;;4.65;;
68976;SDS011;56029;52.568;13.588;2022-08-04T16:57:09;5.13;;;4.50;;
68976;SDS011;56029;52.568;13.588;2022-08-04T16:59:35;5.65;;;4.95;;
68976;SDS011;56029;52.568;13.588;2022-08-04T17:02:01;4.93;;;4.10;;
68976;SDS011;56029;52.568;13.588;2022-08-04T17:04:27;5.32;;;3.10;;
68976;SDS011;56029;52.568;13.588;2022-08-04T17:06:57;3.40;;;3.10;;
68976;SDS011;56029;52.568;13.588;2022-08-04T17:09:27;4.43;;;3.00;;
68976;SDS011;56029;52.568;13.588;2022-08-04T17:11:54;3.63;;;2.90;;
68976;SDS011;56029;52.568;13.588;2022-08-04T17:14:30;4.13;;;3.00;;
68976;SDS011;56029;52.568;13.588;2022-08-04T17:16:57;4.95;;;2.80;;
68976;SDS011;56029;52.568;13.588;2022-08-04T17:19:24;3.30;;;2.65;;
68976;SDS011;56029;52.568;13.588;2022-08-04T17:21:50;5.43;;;2.80;;
68976;SDS011;56029;52.568;13.588;2022-08-04T17:24:17;3.75;;;2.65;;
68976;SDS011;56029;52.568;13.588;2022-08-04T17:26:42;4.83;;;3.00;;
68976;SDS011;56029;52.568;13.588;2022-08-04T17:29:09;4.20;;;2.80;;
68976;SDS011;56029;52.568;13.588;2022-08-04T17:31:36;3.10;;;2.80;;
68976;SDS011;56029;52.568;13.588;2022-08-04T17:34:07;4.77;;;2.80;;
68976;SDS011;56029;52.568;13.588;2022-08-04T17:36:35;4.57;;;2.85;;
68976;SDS011;56029;52.568;13.588;2022-08-04T17:39:02;3.88;;;2.67;;
68976;SDS011;56029;52.568;13.588;2022-08-04T17:41:37;3.03;;;2.70;;
68976;SDS011;56029;52.568;13.588;2022-08-04T17:44:04;4.68;;;2.90;;
68976;SDS011;56029;52.568;13.588;2022-08-04T17:46:37;3.83;;;2.90;;
68976;SDS011;56029;52.568;13.588;2022-08-04T17:51:45;4.68;;;3.00;;
68976;SDS011;56029;52.568;13.588;2022-08-04T17:54:11;4.50;;;2.95;;
68976;SDS011;56029;52.568;13.588;2022-08-04T17:56:42;5.55;;;4.00;;
68976;SDS011;56029;52.568;13.588;2022-08-04T18:02:10;3.90;;;3.00;;
68976;SDS011;56029;52.568;13.588;2022-08-04T18:07:10;4.57;;;3.10;;
68976;SDS011;56029;52.568;13.588;2022-08-04T18:09:41;4.75;;;3.05;;
68976;SDS011;56029;52.568;13.588;2022-08-04T18:12:29;4.37;;;3.00;;
68976;SDS011;56029;52.568;13.588;2022-08-04T18:15:04;5.75;;;3.20;;
68976;SDS011;56029;52.568;13.588;2022-08-04T18:17:47;6.88;;;3.53;;
68976;SDS011;56029;52.568;13.588;2022-08-04T18:20:18;5.88;;;3.58;;
68976;SDS011;56029;52.568;13.588;2022-08-04T18:22:45;6.00;;;3.40;;
68976;SDS011;56029;52.568;13.588;2022-08-04T18:25:12;8.03;;;3.80;;
68976;SDS011;56029;52.568;13.588;2022-08-04T18:27:46;5.95;;;3.35;;
68976;SDS011;56029;52.568;13.588;2022-08-04T18:30:18;5.93;;;3.40;;
68976;SDS011;56029;52.568;13.588;2022-08-04T18:32:45;6.85;;;3.30;;
68976;SDS011;56029;52.568;13.588;2022-08-04T18:35:11;6.37;;;3.30;;
68976;SDS011;56029;52.568;13.588;2022-08-04T18:37:38;6.37;;;3.40;;
68976;SDS011;56029;52.568;13.588;2022-08-04T18:40:05;6.13;;;3.17;;
68976;SDS011;56029;52.568;13.588;2022-08-04T18:42:32;7.18;;;3.50;;
68976;SDS011;56029;52.568;13.588;2022-08-04T18:44:57;7.40;;;4.17;;
68976;SDS011;56029;52.568;13.588;2022-08-04T18:47:23;6.38;;;4.28;;
68976;SDS011;56029;52.568;13.588;2022-08-04T18:49:49;5.53;;;4.03;;
68976;SDS011;56029;52.568;13.588;2022-08-04T18:52:16;6.43;;;3.92;;
68976;SDS011;56029;52.568;13.588;2022-08-04T18:54:41;7.75;;;3.92;;
68976;SDS011;56029;52.568;13.588;2022-08-04T18:57:07;6.83;;;3.87;;